sensor_id;sensor_type;location;lat;lon;timestamp;pressure;altitude;pressure_sealevel;temperature;humidity
69909;BME280;57190;47.918;8.112;2023-06-10T00:00:36;90610.19;;;16.10;53.74
69909;BME280;57190;47.918;8.112;2023-06-10T00:03:01;90606.63;;;16.01;54.33
69909;BME280;57190;47.918;8.112;2023-06-10T00:05:27;90605.97;;;15.95;54.24
69909;BME280;57190;47.918;8.112;2023-06-10T00:07:55;90603.50;;;15.85;54.47
69909;BME280;57190;47.918;8.112;2023-06-10T00:10:21;90606.72;;;15.73;54.98
69909;BME280;57190;47.918;8.112;2023-06-10T00:12:47;90600.38;;;15.69;55.04
69909;BME280;57190;47.918;8.112;2023-06-10T00:15:13;90610.63;;;15.67;55.39
69909;BME280;57190;47.918;8.112;2023-06-10T00:17:38;90600.78;;;15.62;55.58
69909;BME280;57190;47.918;8.112;2023-06-10T00:20:08;90604.97;;;15.54;55.52
69909;BME280;57190;47.918;8.112;2023-06-10T00:22:37;90607.06;;;15.57;55.50
69909;BME280;57190;47.918;8.112;2023-06-10T00:25:06;90595.41;;;15.62;54.99
69909;BME280;57190;47.918;8.112;2023-06-10T00:27:34;90598.59;;;15.64;54.91
69909;BME280;57190;47.918;8.112;2023-06-10T00:30:04;90603.66;;;15.66;54.80
69909;BME280;57190;47.918;8.112;2023-06-10T00:32:32;90598.50;;;15.55;55.54
69909;BME280;57190;47.918;8.112;2023-06-10T00:34:58;90591.66;;;15.49;55.99
69909;BME280;57190;47.918;8.112;2023-06-10T00:37:23;90597.44;;;15.43;55.56
69909;BME280;57190;47.918;8.112;2023-06-10T00:39:49;90599.44;;;15.37;55.90
69909;BME280;57190;47.918;8.112;2023-06-10T00:42:14;90597.66;;;15.32;55.74
69909;BME280;57190;47.918;8.112;2023-06-10T00:44:40;90594.13;;;15.23;56.39
69909;BME280;57190;47.918;8.112;2023-06-10T00:47:06;90593.72;;;15.16;56.63
69909;BME280;57190;47.918;8.112;2023-06-10T00:49:33;90593.81;;;15.11;56.69
69909;BME280;57190;47.918;8.112;2023-06-10T00:51:58;90596.41;;;15.16;56.56
69909;BME280;57190;47.918;8.112;2023-06-10T00:54:24;90591.53;;;15.18;56.54
69909;BME280;57190;47.918;8.112;2023-06-10T00:56:51;90589.53;;;15.23;56.36
69909;BME280;57190;47.918;8.112;2023-06-10T00:59:17;90591.31;;;15.28;56.05
69909;BME280;57190;47.918;8.112;2023-06-10T01:01:44;90589.91;;;15.31;56.33
69909;BME280;57190;47.918;8.112;2023-06-10T01:04:12;90589.50;;;15.37;55.85
69909;BME280;57190;47.918;8.112;2023-06-10T01:06:42;90583.44;;;15.32;56.32
69909;BME280;57190;47.918;8.112;2023-06-10T01:09:27;90586.13;;;15.32;56.26
69909;BME280;57190;47.918;8.112;2023-06-10T01:12:40;90586.13;;;15.32;55.97
69909;BME280;57190;47.918;8.112;2023-06-10T01:14:45;90589.41;;;15.29;56.28
69909;BME280;57190;47.918;8.112;2023-06-10T01:17:12;90591.66;;;15.13;56.71
69909;BME280;57190;47.918;8.112;2023-06-10T01:19:41;90588.97;;;14.99;57.46
69909;BME280;57190;47.918;8.112;2023-06-10T01:22:09;90589.38;;;14.92;57.68
69909;BME280;57190;47.918;8.112;2023-06-10T01:24:36;90592.56;;;14.94;57.77
69909;BME280;57190;47.918;8.112;2023-06-10T01:27:05;90595.13;;;14.99;57.75
69909;BME280;57190;47.918;8.112;2023-06-10T01:29:43;90593.16;;;14.91;58.15
69909;BME280;57190;47.918;8.112;2023-06-10T01:32:34;90594.53;;;14.74;58.76
69909;BME280;57190;47.918;8.112;2023-06-10T01:35:05;90602.19;;;14.67;59.66
69909;BME280;57190;47.918;8.112;2023-06-10T01:37:33;90602.47;;;14.52;60.22
69909;BME280;57190;47.918;8.112;2023-06-10T01:40:00;90601.75;;;14.46;60.19
69909;BME280;57190;47.918;8.112;2023-06-10T01:42:28;90597.19;;;14.33;60.76
69909;BME280;57190;47.918;8.112;2023-06-10T01:44:53;90606.69;;;14.25;60.95
69909;BME280;57190;47.918;8.112;2023-06-10T01:47:19;90607.50;;;14.25;60.86
69909;BME280;57190;47.918;8.112;2023-06-10T01:49:44;90608.41;;;14.21;60.89
69909;BME280;57190;47.918;8.112;2023-06-10T01:52:10;90602.41;;;14.24;60.83
69909;BME280;57190;47.918;8.112;2023-06-10T01:54:35;90604.81;;;14.25;60.85
69909;BME280;57190;47.918;8.112;2023-06-10T01:57:01;90604.22;;;14.28;60.67
69909;BME280;57190;47.918;8.112;2023-06-10T01:59:27;90608.91;;;14.37;60.28
69909;BME280;57190;47.918;8.112;2023-06-10T02:01:52;90601.56;;;14.42;59.95
69909;BME280;57190;47.918;8.112;2023-06-10T02:04:18;90603.56;;;14.51;59.50
69909;BME280;57190;47.918;8.112;2023-06-10T02:06:43;90609.44;;;14.53;59.64
69909;BME280;57190;47.918;8.112;2023-06-10T02:09:10;90608.53;;;14.57;59.28
69909;BME280;57190;47.918;8.112;2023-06-10T02:11:35;90608.34;;;14.54;59.47
69909;BME280;57190;47.918;8.112;2023-06-10T02:14:01;90608.72;;;14.47;59.88
69909;BME280;57190;47.918;8.112;2023-06-10T02:16:26;90612.09;;;14.39;60.14
69909;BME280;57190;47.918;8.112;2023-06-10T02:18:52;90609.50;;;14.34;60.12
69909;BME280;57190;47.918;8.112;2023-06-10T02:21:17;90608.41;;;14.21;60.64
69909;BME280;57190;47.918;8.112;2023-06-10T02:23:43;90616.31;;;14.12;60.85
69909;BME280;57190;47.918;8.112;2023-06-10T02:26:08;90614.72;;;14.11;61.13
69909;BME280;57190;47.918;8.112;2023-06-10T02:28:33;90610.53;;;14.05;61.13
69909;BME280;57190;47.918;8.112;2023-06-10T02:30:59;90605.38;;;14.08;61.48
69909;BME280;57190;47.918;8.112;2023-06-10T02:33:25;90609.13;;;14.07;61.59
69909;BME280;57190;47.918;8.112;2023-06-10T02:35:52;90606.75;;;14.06;61.49
69909;BME280;57190;47.918;8.112;2023-06-10T02:38:18;90601.41;;;14.06;61.58
69909;BME280;57190;47.918;8.112;2023-06-10T02:40:43;90604.66;;;14.03;61.38
69909;BME280;57190;47.918;8.112;2023-06-10T02:43:09;90603.88;;;14.02;61.63
69909;BME280;57190;47.918;8.112;2023-06-10T02:45:34;90605.47;;;14.03;61.77
69909;BME280;57190;47.918;8.112;2023-06-10T02:48:00;90603.34;;;14.00;61.59
69909;BME280;57190;47.918;8.112;2023-06-10T02:50:25;90607.94;;;13.99;61.54
69909;BME280;57190;47.918;8.112;2023-06-10T02:52:51;90609.50;;;13.87;62.39
69909;BME280;57190;47.918;8.112;2023-06-10T02:55:16;90614.28;;;13.71;63.10
69909;BME280;57190;47.918;8.112;2023-06-10T02:57:42;90616.75;;;13.67;63.35
69909;BME280;57190;47.918;8.112;2023-06-10T03:00:07;90612.25;;;13.62;63.79
69909;BME280;57190;47.918;8.112;2023-06-10T03:02:37;90607.41;;;13.64;63.55
69909;BME280;57190;47.918;8.112;2023-06-10T03:05:04;90610.19;;;13.59;63.23
69909;BME280;57190;47.918;8.112;2023-06-10T03:07:30;90613.13;;;13.58;63.20
69909;BME280;57190;47.918;8.112;2023-06-10T03:09:56;90612.91;;;13.54;63.47
69909;BME280;57190;47.918;8.112;2023-06-10T03:12:21;90618.06;;;13.50;63.43
69909;BME280;57190;47.918;8.112;2023-06-10T03:14:47;90614.66;;;13.45;63.52
69909;BME280;57190;47.918;8.112;2023-06-10T03:17:13;90612.34;;;13.38;63.67
69909;BME280;57190;47.918;8.112;2023-06-10T03:19:38;90619.84;;;13.36;63.79
69909;BME280;57190;47.918;8.112;2023-06-10T03:22:13;90625.72;;;13.38;63.91
69909;BME280;57190;47.918;8.112;2023-06-10T03:24:39;90622.53;;;13.36;64.11
69909;BME280;57190;47.918;8.112;2023-06-10T03:27:09;90625.56;;;13.29;64.49
69909;BME280;57190;47.918;8.112;2023-06-10T03:29:37;90620.81;;;13.26;64.45
69909;BME280;57190;47.918;8.112;2023-06-10T03:32:03;90620.50;;;13.28;64.41
69909;BME280;57190;47.918;8.112;2023-06-10T03:34:29;90629.84;;;13.30;64.29
69909;BME280;57190;47.918;8.112;2023-06-10T03:36:56;90632.22;;;13.32;64.28
69909;BME280;57190;47.918;8.112;2023-06-10T03:39:21;90626.28;;;13.35;64.42
69909;BME280;57190;47.918;8.112;2023-06-10T03:41:48;90628.69;;;13.36;64.34
69909;BME280;57190;47.918;8.112;2023-06-10T03:44:14;90627.91;;;13.36;64.51
69909;BME280;57190;47.918;8.112;2023-06-10T03:46:40;90633.25;;;13.36;64.96
69909;BME280;57190;47.918;8.112;2023-06-10T03:49:05;90613.94;;;13.39;64.81
69909;BME280;57190;47.918;8.112;2023-06-10T03:51:31;90621.69;;;13.41;64.63
69909;BME280;57190;47.918;8.112;2023-06-10T03:53:56;90627.56;;;13.43;64.72
69909;BME280;57190;47.918;8.112;2023-06-10T03:56:22;90626.75;;;13.42;64.91
69909;BME280;57190;47.918;8.112;2023-06-10T03:58:47;90625.22;;;13.36;65.18
69909;BME280;57190;47.918;8.112;2023-06-10T04:01:13;90633.25;;;13.36;65.34
69909;BME280;57190;47.918;8.112;2023-06-10T04:03:38;90625.78;;;13.33;65.77
69909;BME280;57190;47.918;8.112;2023-06-10T04:06:06;90631.22;;;13.28;66.04
69909;BME280;57190;47.918;8.112;2023-06-10T04:08:32;90626.78;;;13.18;66.29
69909;BME280;57190;47.918;8.112;2023-06-10T04:10:58;90627.41;;;13.10;66.68
69909;BME280;57190;47.918;8.112;2023-06-10T04:13:23;90634.38;;;13.11;66.79
69909;BME280;57190;47.918;8.112;2023-06-10T04:15:49;90630.25;;;13.43;65.82
69909;BME280;57190;47.918;8.112;2023-06-10T04:18:16;90632.84;;;13.67;65.08
69909;BME280;57190;47.918;8.112;2023-06-10T04:20:41;90630.31;;;13.76;65.22
69909;BME280;57190;47.918;8.112;2023-06-10T04:23:07;90636.00;;;13.88;65.11
69909;BME280;57190;47.918;8.112;2023-06-10T04:25:33;90635.28;;;14.02;64.73
69909;BME280;57190;47.918;8.112;2023-06-10T04:27:59;90629.25;;;14.24;64.14
69909;BME280;57190;47.918;8.112;2023-06-10T04:30:24;90634.25;;;15.05;62.14
69909;BME280;57190;47.918;8.112;2023-06-10T04:32:50;90633.22;;;14.87;62.57
69909;BME280;57190;47.918;8.112;2023-06-10T04:35:16;90635.91;;;14.73;63.39
69909;BME280;57190;47.918;8.112;2023-06-10T04:37:41;90639.16;;;14.56;63.96
69909;BME280;57190;47.918;8.112;2023-06-10T04:40:08;90631.97;;;14.38;64.51
69909;BME280;57190;47.918;8.112;2023-06-10T04:42:34;90641.59;;;14.39;64.58
69909;BME280;57190;47.918;8.112;2023-06-10T04:45:00;90637.22;;;14.29;64.89
69909;BME280;57190;47.918;8.112;2023-06-10T04:47:26;90649.03;;;14.28;65.14
69909;BME280;57190;47.918;8.112;2023-06-10T04:49:52;90645.91;;;14.54;65.15
69909;BME280;57190;47.918;8.112;2023-06-10T04:52:17;90649.75;;;14.67;65.51
69909;BME280;57190;47.918;8.112;2023-06-10T04:54:43;90647.28;;;14.84;65.53
69909;BME280;57190;47.918;8.112;2023-06-10T04:57:09;90650.72;;;14.85;65.54
69909;BME280;57190;47.918;8.112;2023-06-10T04:59:35;90645.19;;;14.95;65.69
69909;BME280;57190;47.918;8.112;2023-06-10T05:02:04;90641.59;;;15.14;65.30
69909;BME280;57190;47.918;8.112;2023-06-10T05:04:30;90641.84;;;15.26;64.85
69909;BME280;57190;47.918;8.112;2023-06-10T05:06:56;90645.44;;;15.35;65.13
69909;BME280;57190;47.918;8.112;2023-06-10T05:09:21;90645.81;;;15.43;65.04
69909;BME280;57190;47.918;8.112;2023-06-10T05:19:13;90654.09;;;15.32;64.77
69909;BME280;57190;47.918;8.112;2023-06-10T05:21:38;90653.63;;;15.30;64.91
69909;BME280;57190;47.918;8.112;2023-06-10T05:24:04;90654.59;;;15.34;65.07
69909;BME280;57190;47.918;8.112;2023-06-10T05:26:29;90655.50;;;15.30;64.63
69909;BME280;57190;47.918;8.112;2023-06-10T05:28:57;90657.00;;;15.22;65.04
69909;BME280;57190;47.918;8.112;2023-06-10T05:31:22;90656.19;;;15.21;65.51
69909;BME280;57190;47.918;8.112;2023-06-10T05:33:48;90657.47;;;15.24;65.43
69909;BME280;57190;47.918;8.112;2023-06-10T05:36:13;90653.63;;;15.30;65.54
69909;BME280;57190;47.918;8.112;2023-06-10T05:38:39;90661.66;;;15.44;64.99
69909;BME280;57190;47.918;8.112;2023-06-10T05:41:04;90658.13;;;15.57;64.09
69909;BME280;57190;47.918;8.112;2023-06-10T05:43:30;90656.22;;;15.72;63.75
69909;BME280;57190;47.918;8.112;2023-06-10T05:45:55;90652.41;;;15.87;63.24
69909;BME280;57190;47.918;8.112;2023-06-10T05:48:21;90658.72;;;16.05;62.77
69909;BME280;57190;47.918;8.112;2023-06-10T05:50:46;90656.97;;;16.23;61.33
69909;BME280;57190;47.918;8.112;2023-06-10T05:53:16;90653.75;;;16.44;60.85
69909;BME280;57190;47.918;8.112;2023-06-10T05:55:42;90656.28;;;16.72;59.74
69909;BME280;57190;47.918;8.112;2023-06-10T05:58:08;90659.13;;;16.98;58.57
69909;BME280;57190;47.918;8.112;2023-06-10T06:00:34;90658.50;;;17.01;57.92
69909;BME280;57190;47.918;8.112;2023-06-10T06:02:59;90662.81;;;17.02;59.87
69909;BME280;57190;47.918;8.112;2023-06-10T06:05:25;90658.69;;;17.05;59.98
69909;BME280;57190;47.918;8.112;2023-06-10T06:07:51;90662.22;;;17.14;60.33
69909;BME280;57190;47.918;8.112;2023-06-10T06:10:17;90656.81;;;17.14;60.10
69909;BME280;57190;47.918;8.112;2023-06-10T06:12:43;90661.28;;;17.19;58.78
69909;BME280;57190;47.918;8.112;2023-06-10T06:15:10;90651.94;;;17.25;57.82
69909;BME280;57190;47.918;8.112;2023-06-10T06:17:36;90658.94;;;17.35;57.71
69909;BME280;57190;47.918;8.112;2023-06-10T06:20:03;90652.75;;;17.43;57.73
69909;BME280;57190;47.918;8.112;2023-06-10T06:22:29;90649.78;;;17.44;56.84
69909;BME280;57190;47.918;8.112;2023-06-10T06:24:54;90655.00;;;17.50;57.02
69909;BME280;57190;47.918;8.112;2023-06-10T06:27:20;90648.69;;;17.54;57.78
69909;BME280;57190;47.918;8.112;2023-06-10T06:29:46;90650.09;;;17.60;57.19
69909;BME280;57190;47.918;8.112;2023-06-10T06:32:12;90652.50;;;17.71;57.17
69909;BME280;57190;47.918;8.112;2023-06-10T06:34:38;90652.34;;;17.76;56.80
69909;BME280;57190;47.918;8.112;2023-06-10T06:37:03;90645.38;;;17.84;57.13
69909;BME280;57190;47.918;8.112;2023-06-10T06:39:29;90652.53;;;17.88;57.08
69909;BME280;57190;47.918;8.112;2023-06-10T06:41:55;90648.56;;;17.95;57.65
69909;BME280;57190;47.918;8.112;2023-06-10T06:44:20;90652.56;;;18.06;57.38
69909;BME280;57190;47.918;8.112;2023-06-10T06:46:46;90651.44;;;18.16;56.34
69909;BME280;57190;47.918;8.112;2023-06-10T06:49:11;90656.38;;;18.22;55.58
69909;BME280;57190;47.918;8.112;2023-06-10T06:51:37;90654.94;;;18.34;55.21
69909;BME280;57190;47.918;8.112;2023-06-10T06:54:03;90657.94;;;18.41;54.62
69909;BME280;57190;47.918;8.112;2023-06-10T06:56:30;90656.50;;;18.52;55.26
69909;BME280;57190;47.918;8.112;2023-06-10T06:58:56;90660.94;;;18.66;55.78
69909;BME280;57190;47.918;8.112;2023-06-10T07:01:22;90664.84;;;18.77;55.39
69909;BME280;57190;47.918;8.112;2023-06-10T07:03:47;90655.94;;;18.85;55.83
69909;BME280;57190;47.918;8.112;2023-06-10T07:06:13;90662.78;;;18.92;54.59
69909;BME280;57190;47.918;8.112;2023-06-10T07:08:38;90661.03;;;18.96;53.42
69909;BME280;57190;47.918;8.112;2023-06-10T07:11:04;90657.34;;;19.00;54.02
69909;BME280;57190;47.918;8.112;2023-06-10T07:13:30;90656.69;;;19.12;53.14
69909;BME280;57190;47.918;8.112;2023-06-10T07:15:55;90657.44;;;19.22;53.49
69909;BME280;57190;47.918;8.112;2023-06-10T07:18:21;90662.63;;;19.36;51.51
69909;BME280;57190;47.918;8.112;2023-06-10T07:20:46;90652.31;;;19.29;51.04
69909;BME280;57190;47.918;8.112;2023-06-10T07:23:12;90654.25;;;19.28;51.86
69909;BME280;57190;47.918;8.112;2023-06-10T07:25:37;90655.00;;;19.38;52.14
69909;BME280;57190;47.918;8.112;2023-06-10T07:28:03;90656.72;;;19.42;51.38
69909;BME280;57190;47.918;8.112;2023-06-10T07:30:29;90652.72;;;19.40;50.85
69909;BME280;57190;47.918;8.112;2023-06-10T07:32:54;90660.00;;;19.48;51.81
69909;BME280;57190;47.918;8.112;2023-06-10T07:35:21;90656.47;;;19.56;50.67
69909;BME280;57190;47.918;8.112;2023-06-10T07:37:46;90658.03;;;19.66;50.55
69909;BME280;57190;47.918;8.112;2023-06-10T07:40:12;90658.09;;;19.78;50.97
69909;BME280;57190;47.918;8.112;2023-06-10T07:42:37;90655.69;;;19.86;50.47
69909;BME280;57190;47.918;8.112;2023-06-10T07:45:03;90648.84;;;19.88;50.96
69909;BME280;57190;47.918;8.112;2023-06-10T07:47:30;90655.91;;;20.02;50.89
69909;BME280;57190;47.918;8.112;2023-06-10T07:49:56;90660.59;;;20.14;50.46
69909;BME280;57190;47.918;8.112;2023-06-10T07:52:21;90655.44;;;20.21;50.03
69909;BME280;57190;47.918;8.112;2023-06-10T07:54:47;90656.38;;;20.25;50.07
69909;BME280;57190;47.918;8.112;2023-06-10T07:57:13;90661.69;;;20.34;49.51
69909;BME280;57190;47.918;8.112;2023-06-10T07:59:38;90669.78;;;20.21;50.58
69909;BME280;57190;47.918;8.112;2023-06-10T08:02:04;90665.97;;;20.22;49.42
69909;BME280;57190;47.918;8.112;2023-06-10T08:04:31;90659.13;;;20.16;49.61
69909;BME280;57190;47.918;8.112;2023-06-10T08:06:56;90659.81;;;20.34;49.84
69909;BME280;57190;47.918;8.112;2023-06-10T08:09:22;90665.34;;;20.17;49.00
69909;BME280;57190;47.918;8.112;2023-06-10T08:11:48;90671.28;;;20.10;49.36
69909;BME280;57190;47.918;8.112;2023-06-10T08:14:15;90670.56;;;20.22;49.65
69909;BME280;57190;47.918;8.112;2023-06-10T08:16:43;90664.97;;;20.06;49.67
69909;BME280;57190;47.918;8.112;2023-06-10T08:19:09;90672.72;;;19.86;49.54
69909;BME280;57190;47.918;8.112;2023-06-10T08:21:35;90669.91;;;19.74;49.05
69909;BME280;57190;47.918;8.112;2023-06-10T08:24:03;90666.28;;;19.70;48.79
69909;BME280;57190;47.918;8.112;2023-06-10T08:26:28;90661.13;;;19.77;49.02
69909;BME280;57190;47.918;8.112;2023-06-10T08:28:54;90661.97;;;20.20;48.63
69909;BME280;57190;47.918;8.112;2023-06-10T08:31:20;90667.13;;;20.13;49.63
69909;BME280;57190;47.918;8.112;2023-06-10T08:33:46;90665.16;;;20.22;47.82
69909;BME280;57190;47.918;8.112;2023-06-10T08:39:34;90666.59;;;20.19;47.61
69909;BME280;57190;47.918;8.112;2023-06-10T08:44:37;90668.97;;;20.00;50.45
69909;BME280;57190;47.918;8.112;2023-06-10T08:47:08;90659.56;;;20.27;49.96
69909;BME280;57190;47.918;8.112;2023-06-10T08:49:38;90664.66;;;20.41;49.18
69909;BME280;57190;47.918;8.112;2023-06-10T08:52:07;90665.09;;;20.85;46.92
69909;BME280;57190;47.918;8.112;2023-06-10T08:54:33;90664.13;;;21.02;46.67
69909;BME280;57190;47.918;8.112;2023-06-10T08:57:04;90662.97;;;21.03;46.58
69909;BME280;57190;47.918;8.112;2023-06-10T08:59:31;90672.09;;;20.86;45.96
69909;BME280;57190;47.918;8.112;2023-06-10T09:01:58;90661.38;;;20.90;45.94
69909;BME280;57190;47.918;8.112;2023-06-10T09:04:24;90665.72;;;21.16;46.57
69909;BME280;57190;47.918;8.112;2023-06-10T09:06:51;90667.97;;;21.01;46.82
69909;BME280;57190;47.918;8.112;2023-06-10T09:09:18;90669.03;;;21.34;47.96
69909;BME280;57190;47.918;8.112;2023-06-10T09:11:45;90664.19;;;21.52;44.38
69909;BME280;57190;47.918;8.112;2023-06-10T09:14:11;90664.31;;;21.68;44.93
69909;BME280;57190;47.918;8.112;2023-06-10T09:16:38;90660.81;;;21.92;44.20
69909;BME280;57190;47.918;8.112;2023-06-10T09:19:04;90666.53;;;22.16;43.94
69909;BME280;57190;47.918;8.112;2023-06-10T09:21:33;90660.97;;;22.12;43.90
69909;BME280;57190;47.918;8.112;2023-06-10T09:24:01;90672.28;;;22.14;43.62
69909;BME280;57190;47.918;8.112;2023-06-10T09:26:30;90667.84;;;22.34;45.41
69909;BME280;57190;47.918;8.112;2023-06-10T09:29:06;90666.41;;;22.24;43.74
69909;BME280;57190;47.918;8.112;2023-06-10T09:31:35;90668.25;;;21.95;44.75
69909;BME280;57190;47.918;8.112;2023-06-10T09:34:14;90674.69;;;22.16;44.76
69909;BME280;57190;47.918;8.112;2023-06-10T09:36:42;90668.28;;;22.36;43.42
69909;BME280;57190;47.918;8.112;2023-06-10T09:39:16;90666.34;;;22.49;41.41
69909;BME280;57190;47.918;8.112;2023-06-10T09:41:44;90673.47;;;22.54;41.75
69909;BME280;57190;47.918;8.112;2023-06-10T09:44:15;90661.00;;;22.65;41.69
69909;BME280;57190;47.918;8.112;2023-06-10T09:46:41;90667.16;;;22.78;42.08
69909;BME280;57190;47.918;8.112;2023-06-10T09:49:07;90669.25;;;22.85;42.26
69909;BME280;57190;47.918;8.112;2023-06-10T09:51:33;90665.78;;;22.84;41.33
69909;BME280;57190;47.918;8.112;2023-06-10T09:53:59;90672.69;;;22.82;40.67
69909;BME280;57190;47.918;8.112;2023-06-10T09:56:34;90669.38;;;22.88;39.99
69909;BME280;57190;47.918;8.112;2023-06-10T09:59:00;90672.38;;;22.71;40.78
69909;BME280;57190;47.918;8.112;2023-06-10T10:01:26;90666.06;;;22.95;40.99
69909;BME280;57190;47.918;8.112;2023-06-10T10:03:53;90677.56;;;23.04;39.73
69909;BME280;57190;47.918;8.112;2023-06-10T10:06:20;90679.25;;;23.09;41.20
69909;BME280;57190;47.918;8.112;2023-06-10T10:08:47;90679.50;;;23.04;40.14
69909;BME280;57190;47.918;8.112;2023-06-10T10:11:16;90682.41;;;23.11;40.82
69909;BME280;57190;47.918;8.112;2023-06-10T10:13:45;90685.00;;;23.20;41.39
69909;BME280;57190;47.918;8.112;2023-06-10T10:16:33;90680.34;;;23.20;41.07
69909;BME280;57190;47.918;8.112;2023-06-10T10:19:11;90681.78;;;23.02;39.14
69909;BME280;57190;47.918;8.112;2023-06-10T10:21:44;90682.97;;;22.60;40.90
69909;BME280;57190;47.918;8.112;2023-06-10T10:24:21;90682.78;;;22.28;42.99
69909;BME280;57190;47.918;8.112;2023-06-10T10:26:48;90683.41;;;22.62;40.63
69909;BME280;57190;47.918;8.112;2023-06-10T10:29:38;90679.19;;;22.93;41.18
69909;BME280;57190;47.918;8.112;2023-06-10T10:32:08;90685.34;;;23.18;41.18
69909;BME280;57190;47.918;8.112;2023-06-10T10:35:00;90672.28;;;23.40;41.42
69909;BME280;57190;47.918;8.112;2023-06-10T10:37:31;90672.66;;;23.54;40.67
69909;BME280;57190;47.918;8.112;2023-06-10T10:39:57;90678.50;;;23.57;40.45
69909;BME280;57190;47.918;8.112;2023-06-10T10:42:24;90676.22;;;23.43;39.86
69909;BME280;57190;47.918;8.112;2023-06-10T10:44:50;90672.53;;;23.51;40.20
69909;BME280;57190;47.918;8.112;2023-06-10T10:47:21;90669.53;;;23.72;40.71
69909;BME280;57190;47.918;8.112;2023-06-10T10:49:50;90670.59;;;23.67;39.39
69909;BME280;57190;47.918;8.112;2023-06-10T10:52:17;90670.34;;;23.73;40.73
69909;BME280;57190;47.918;8.112;2023-06-10T10:54:44;90673.03;;;23.89;40.50
69909;BME280;57190;47.918;8.112;2023-06-10T10:57:19;90670.69;;;23.87;39.44
69909;BME280;57190;47.918;8.112;2023-06-10T10:59:46;90680.53;;;23.28;40.99
69909;BME280;57190;47.918;8.112;2023-06-10T11:02:42;90675.56;;;22.73;40.03
69909;BME280;57190;47.918;8.112;2023-06-10T11:05:15;90681.28;;;22.55;41.05
69909;BME280;57190;47.918;8.112;2023-06-10T11:07:52;90686.91;;;22.22;42.29
69909;BME280;57190;47.918;8.112;2023-06-10T11:10:29;90675.00;;;22.67;42.19
69909;BME280;57190;47.918;8.112;2023-06-10T11:12:56;90673.53;;;23.14;42.09
69909;BME280;57190;47.918;8.112;2023-06-10T11:15:27;90666.22;;;23.31;41.07
69909;BME280;57190;47.918;8.112;2023-06-10T11:21:00;90665.25;;;23.87;41.32
69909;BME280;57190;47.918;8.112;2023-06-10T11:23:32;90669.75;;;23.79;40.27
69909;BME280;57190;47.918;8.112;2023-06-10T11:26:17;90669.50;;;23.52;42.59
69909;BME280;57190;47.918;8.112;2023-06-10T11:31:24;90678.97;;;22.98;44.09
69909;BME280;57190;47.918;8.112;2023-06-10T11:33:53;90674.28;;;22.83;43.83
69909;BME280;57190;47.918;8.112;2023-06-10T11:36:19;90670.22;;;22.76;43.21
69909;BME280;57190;47.918;8.112;2023-06-10T11:38:45;90675.34;;;22.66;42.55
69909;BME280;57190;47.918;8.112;2023-06-10T11:41:11;90686.13;;;22.62;43.06
69909;BME280;57190;47.918;8.112;2023-06-10T11:43:46;90672.59;;;22.37;42.05
69909;BME280;57190;47.918;8.112;2023-06-10T11:46:14;90677.47;;;22.44;43.35
69909;BME280;57190;47.918;8.112;2023-06-10T11:48:57;90678.28;;;22.73;43.70
69909;BME280;57190;47.918;8.112;2023-06-10T11:51:28;90678.47;;;22.52;41.97
69909;BME280;57190;47.918;8.112;2023-06-10T11:53:55;90682.47;;;22.42;43.54
69909;BME280;57190;47.918;8.112;2023-06-10T11:56:26;90685.38;;;22.49;43.42
69909;BME280;57190;47.918;8.112;2023-06-10T11:59:12;90675.91;;;22.71;42.92
69909;BME280;57190;47.918;8.112;2023-06-10T12:01:43;90677.63;;;22.64;41.94
69909;BME280;57190;47.918;8.112;2023-06-10T12:04:11;90671.00;;;22.77;42.42
69909;BME280;57190;47.918;8.112;2023-06-10T12:06:45;90673.34;;;23.07;41.67
69909;BME280;57190;47.918;8.112;2023-06-10T12:09:31;90665.44;;;23.46;41.02
69909;BME280;57190;47.918;8.112;2023-06-10T12:12:00;90670.31;;;23.89;41.01
69909;BME280;57190;47.918;8.112;2023-06-10T12:14:58;90660.66;;;24.07;40.28
69909;BME280;57190;47.918;8.112;2023-06-10T12:19:55;90662.44;;;23.99;41.75
69909;BME280;57190;47.918;8.112;2023-06-10T12:22:21;90660.34;;;23.61;41.44
69909;BME280;57190;47.918;8.112;2023-06-10T12:25:03;90669.22;;;23.13;41.84
69909;BME280;57190;47.918;8.112;2023-06-10T12:27:30;90668.19;;;23.02;43.61
69909;BME280;57190;47.918;8.112;2023-06-10T12:30:01;90666.13;;;22.83;43.88
69909;BME280;57190;47.918;8.112;2023-06-10T12:32:45;90670.31;;;22.52;42.94
69909;BME280;57190;47.918;8.112;2023-06-10T12:35:15;90665.13;;;22.47;43.24
69909;BME280;57190;47.918;8.112;2023-06-10T12:37:42;90671.00;;;22.49;43.87
69909;BME280;57190;47.918;8.112;2023-06-10T12:40:09;90665.78;;;22.56;43.78
69909;BME280;57190;47.918;8.112;2023-06-10T12:42:36;90663.00;;;22.68;43.52
69909;BME280;57190;47.918;8.112;2023-06-10T12:45:03;90657.53;;;22.97;42.40
69909;BME280;57190;47.918;8.112;2023-06-10T12:47:30;90657.97;;;23.91;42.87
69909;BME280;57190;47.918;8.112;2023-06-10T12:50:01;90659.25;;;24.88;40.49
69909;BME280;57190;47.918;8.112;2023-06-10T12:52:27;90653.22;;;25.41;39.28
69909;BME280;57190;47.918;8.112;2023-06-10T12:54:56;90653.00;;;25.50;36.69
69909;BME280;57190;47.918;8.112;2023-06-10T12:57:22;90653.00;;;25.31;36.54
69909;BME280;57190;47.918;8.112;2023-06-10T12:59:48;90653.53;;;24.74;39.16
69909;BME280;57190;47.918;8.112;2023-06-10T13:02:22;90660.00;;;24.30;39.58
69909;BME280;57190;47.918;8.112;2023-06-10T13:04:52;90656.47;;;23.94;41.71
69909;BME280;57190;47.918;8.112;2023-06-10T13:07:19;90647.00;;;23.55;43.16
69909;BME280;57190;47.918;8.112;2023-06-10T13:09:44;90639.28;;;23.26;43.12
69909;BME280;57190;47.918;8.112;2023-06-10T13:12:10;90647.19;;;23.02;44.04
69909;BME280;57190;47.918;8.112;2023-06-10T13:14:37;90648.16;;;22.94;43.79
69909;BME280;57190;47.918;8.112;2023-06-10T13:17:04;90648.88;;;23.07;43.45
69909;BME280;57190;47.918;8.112;2023-06-10T13:19:32;90641.09;;;23.21;44.09
69909;BME280;57190;47.918;8.112;2023-06-10T13:21:58;90634.97;;;23.24;44.08
69909;BME280;57190;47.918;8.112;2023-06-10T13:24:24;90632.94;;;23.21;42.48